createdAt,value
2022-08-04T00:00:12.814Z,0.00
2022-08-04T00:01:12.854Z,0.00
2022-08-04T00:02:12.848Z,0.00
2022-08-04T00:03:12.785Z,0.00
2022-08-04T00:04:12.776Z,0.00
2022-08-04T00:05:12.841Z,0.00
2022-08-04T00:06:12.751Z,0.00
2022-08-04T00:07:12.736Z,0.00
2022-08-04T00:08:12.738Z,0.00
2022-08-04T00:09:12.713Z,0.00
2022-08-04T00:10:12.736Z,0.00
2022-08-04T00:11:15.563Z,0.00
2022-08-04T00:12:12.671Z,0.00
2022-08-04T00:13:12.636Z,0.00
2022-08-04T00:14:12.623Z,0.00
2022-08-04T00:15:14.830Z,0.00
2022-08-04T00:16:12.659Z,0.00
2022-08-04T00:17:12.667Z,0.00
2022-08-04T00:18:12.588Z,0.00
2022-08-04T00:19:12.570Z,0.00
2022-08-04T00:20:12.549Z,0.00
2022-08-04T00:21:14.677Z,0.00
2022-08-04T00:22:12.549Z,0.00
2022-08-04T00:23:12.502Z,0.00
2022-08-04T00:24:13.083Z,0.00
2022-08-04T00:25:12.505Z,0.00
2022-08-04T00:26:12.508Z,0.00
2022-08-04T00:27:12.544Z,0.00
2022-08-04T00:28:12.479Z,0.00
2022-08-04T00:29:12.443Z,0.00
2022-08-04T00:30:12.426Z,0.00
2022-08-04T00:31:12.416Z,0.00
2022-08-04T00:32:12.430Z,0.00
2022-08-04T00:33:12.412Z,0.00
2022-08-04T00:34:12.408Z,0.00
2022-08-04T00:35:12.363Z,0.00
2022-08-04T00:36:12.337Z,0.00
2022-08-04T00:37:12.362Z,0.00
2022-08-04T00:38:12.357Z,0.00
2022-08-04T00:39:12.437Z,0.00
2022-08-04T00:40:12.292Z,0.00
2022-08-04T00:41:12.295Z,0.00
2022-08-04T00:42:12.286Z,0.00
2022-08-04T00:43:12.248Z,0.00
2022-08-04T00:44:12.257Z,0.00
2022-08-04T00:45:12.251Z,0.00
2022-08-04T00:46:17.434Z,0.00
2022-08-04T00:47:12.203Z,0.00
2022-08-04T00:48:12.204Z,0.00
2022-08-04T00:49:12.203Z,0.00
2022-08-04T00:50:12.186Z,0.00
2022-08-04T00:51:12.160Z,0.00
2022-08-04T00:52:32.340Z,0.00
2022-08-04T00:53:12.138Z,0.00
2022-08-04T00:54:12.132Z,0.00
2022-08-04T00:55:12.130Z,0.00
2022-08-04T00:56:12.091Z,0.00
2022-08-04T00:57:34.189Z,0.00
2022-08-04T00:58:12.069Z,0.00
2022-08-04T00:59:12.054Z,0.00
2022-08-04T01:00:12.091Z,0.00
2022-08-04T01:01:12.044Z,0.00
2022-08-04T01:02:12.143Z,0.00
2022-08-04T01:03:12.005Z,0.00
2022-08-04T01:04:11.988Z,0.00
2022-08-04T01:05:11.951Z,0.00
2022-08-04T01:06:11.979Z,0.00
2022-08-04T01:07:11.973Z,0.00
2022-08-04T01:08:11.915Z,0.00
2022-08-04T01:09:11.967Z,0.00
2022-08-04T01:10:17.016Z,0.00
2022-08-04T01:11:11.910Z,0.00
2022-08-04T01:12:11.875Z,0.00
2022-08-04T01:13:15.424Z,0.00
2022-08-04T01:14:11.849Z,0.00
2022-08-04T01:15:11.869Z,0.00
2022-08-04T01:16:11.839Z,0.00
2022-08-04T01:17:12.935Z,0.00
2022-08-04T01:18:11.785Z,0.00
2022-08-04T01:19:11.792Z,0.00
2022-08-04T01:20:11.813Z,0.00
2022-08-04T01:21:11.755Z,0.00
2022-08-04T01:22:11.751Z,0.00
2022-08-04T01:23:11.771Z,0.00
2022-08-04T01:24:11.748Z,0.00
2022-08-04T01:25:11.718Z,0.00
2022-08-04T01:26:42.460Z,0.00
2022-08-04T01:27:11.734Z,0.00
2022-08-04T01:28:11.655Z,0.00
2022-08-04T01:29:12.977Z,0.00
2022-08-04T01:30:11.676Z,0.00
2022-08-04T01:31:13.035Z,0.00
2022-08-04T01:32:11.608Z,0.00
2022-08-04T01:33:11.604Z,0.00
2022-08-04T01:34:11.596Z,0.00
2022-08-04T01:35:22.063Z,0.00
2022-08-04T01:36:11.580Z,0.00
2022-08-04T01:37:11.578Z,0.00
2022-08-04T01:38:18.311Z,0.00
2022-08-04T01:39:11.597Z,0.00
2022-08-04T01:40:11.526Z,0.00
2022-08-04T01:41:11.486Z,0.00
2022-08-04T01:42:11.480Z,0.00
2022-08-04T01:43:11.490Z,0.00
2022-08-04T01:44:11.460Z,0.00
2022-08-04T01:45:11.442Z,0.00
2022-08-04T01:46:11.427Z,0.00
2022-08-04T01:47:11.440Z,0.00
2022-08-04T01:48:11.405Z,0.00
2022-08-04T01:49:11.390Z,0.00
2022-08-04T01:50:11.398Z,0.00
2022-08-04T01:51:11.377Z,0.00
2022-08-04T01:52:11.375Z,0.00
2022-08-04T01:53:11.335Z,0.00
2022-08-04T01:54:11.324Z,0.00
2022-08-04T01:55:11.338Z,0.00
2022-08-04T01:56:11.313Z,0.00
2022-08-04T01:57:37.930Z,0.00
2022-08-04T01:58:11.279Z,0.00
2022-08-04T01:59:11.294Z,0.00
2022-08-04T02:00:11.235Z,0.00
2022-08-04T02:01:11.293Z,0.00
2022-08-04T02:02:11.415Z,0.00
2022-08-04T02:03:11.247Z,0.00
2022-08-04T02:04:18.839Z,0.00
2022-08-04T02:05:11.264Z,0.00
2022-08-04T02:06:11.217Z,0.00
2022-08-04T02:07:11.236Z,0.00
2022-08-04T02:08:11.154Z,0.00
2022-08-04T02:09:11.149Z,0.00
2022-08-04T02:10:11.097Z,0.00
2022-08-04T02:11:11.131Z,0.00
2022-08-04T02:12:15.836Z,0.00
2022-08-04T02:13:11.081Z,0.00
2022-08-04T02:14:11.058Z,0.00
2022-08-04T02:15:11.054Z,0.00
2022-08-04T02:16:11.036Z,0.00
2022-08-04T02:17:11.005Z,0.00
2022-08-04T02:18:11.025Z,0.00
2022-08-04T02:19:14.804Z,0.00
2022-08-04T02:20:10.978Z,0.00
2022-08-04T02:21:10.947Z,0.00
2022-08-04T02:22:10.969Z,0.00
2022-08-04T02:23:10.919Z,0.00
2022-08-04T02:24:10.904Z,0.00
2022-08-04T02:25:10.901Z,0.00
2022-08-04T02:26:11.402Z,0.00
2022-08-04T02:27:10.892Z,0.00
2022-08-04T02:28:10.890Z,0.00
2022-08-04T02:29:10.863Z,0.00
2022-08-04T02:30:10.854Z,0.00
2022-08-04T02:31:10.886Z,0.00
2022-08-04T02:32:10.827Z,0.00
2022-08-04T02:33:10.802Z,0.00
2022-08-04T02:34:10.792Z,0.00
2022-08-04T02:35:10.793Z,0.00
2022-08-04T02:36:10.751Z,0.00
2022-08-04T02:37:11.824Z,0.00
2022-08-04T02:38:10.733Z,0.00
2022-08-04T02:39:10.725Z,0.00
2022-08-04T02:40:10.747Z,0.00
2022-08-04T02:41:10.748Z,0.00
2022-08-04T02:42:10.700Z,0.00
2022-08-04T02:43:10.682Z,0.00
2022-08-04T02:44:10.702Z,0.00
2022-08-04T02:45:10.622Z,0.00
2022-08-04T02:46:17.841Z,0.00
2022-08-04T02:47:10.643Z,0.00
2022-08-04T02:48:31.333Z,0.00
2022-08-04T02:49:10.590Z,0.00
2022-08-04T02:50:10.566Z,0.00
2022-08-04T02:51:10.574Z,0.00
2022-08-04T02:52:10.551Z,0.00
2022-08-04T02:53:10.523Z,0.00
2022-08-04T02:54:10.506Z,4.00
2022-08-04T02:55:10.493Z,4.00
2022-08-04T02:56:10.472Z,4.00
2022-08-04T02:57:10.458Z,0.00
2022-08-04T02:58:10.468Z,4.00
2022-08-04T02:59:10.485Z,4.00
2022-08-04T03:00:10.426Z,8.00
2022-08-04T03:01:10.451Z,4.00
2022-08-04T03:02:10.416Z,8.00
2022-08-04T03:03:10.398Z,8.00
2022-08-04T03:04:10.387Z,8.00
2022-08-04T03:05:10.350Z,12.00
2022-08-04T03:06:10.699Z,12.00
2022-08-04T03:07:15.648Z,12.00
2022-08-04T03:08:10.329Z,16.00
2022-08-04T03:09:10.296Z,16.00
2022-08-04T03:10:10.287Z,20.00
2022-08-04T03:11:10.277Z,24.00
2022-08-04T03:12:10.251Z,24.00
2022-08-04T03:13:10.239Z,32.00
2022-08-04T03:14:10.256Z,32.00
2022-08-04T03:15:10.249Z,36.00
2022-08-04T03:16:10.210Z,44.00
2022-08-04T03:17:10.213Z,48.00
2022-08-04T03:18:10.169Z,56.00
2022-08-04T03:19:10.159Z,60.00
2022-08-04T03:20:10.159Z,72.00
2022-08-04T03:21:10.186Z,80.00
2022-08-04T03:22:10.138Z,88.00
2022-08-04T03:23:14.170Z,100.00
2022-08-04T03:24:10.087Z,112.00
2022-08-04T03:25:10.102Z,124.00
2022-08-04T03:26:10.065Z,136.00
2022-08-04T03:27:10.071Z,152.00
2022-08-04T03:28:10.045Z,168.00
2022-08-04T03:29:10.064Z,184.00
2022-08-04T03:30:10.064Z,200.00
2022-08-04T03:31:10.004Z,220.00
2022-08-04T03:32:10.005Z,240.00
2022-08-04T03:33:09.981Z,260.00
2022-08-04T03:34:09.961Z,280.00
2022-08-04T03:35:09.950Z,300.00
2022-08-04T03:36:09.983Z,324.00
2022-08-04T03:37:09.944Z,352.00
2022-08-04T03:38:09.937Z,372.00
2022-08-04T03:39:09.964Z,400.00
2022-08-04T03:40:10.715Z,428.00
2022-08-04T03:41:09.906Z,460.00
2022-08-04T03:42:14.221Z,488.00
2022-08-04T03:43:09.867Z,512.00
2022-08-04T03:44:09.877Z,544.00
2022-08-04T03:45:20.580Z,576.00
2022-08-04T03:46:09.866Z,604.00
2022-08-04T03:47:09.833Z,632.00
2022-08-04T03:48:09.830Z,668.00
2022-08-04T03:49:09.809Z,696.00
2022-08-04T03:50:09.794Z,724.00
2022-08-04T03:51:09.789Z,756.00
2022-08-04T03:52:09.737Z,792.00
2022-08-04T03:53:09.741Z,824.00
2022-08-04T03:54:09.747Z,856.00
2022-08-04T03:55:09.695Z,892.00
2022-08-04T03:56:09.683Z,920.00
2022-08-04T03:57:09.687Z,952.00
2022-08-04T03:58:09.851Z,988.00
2022-08-04T03:59:09.653Z,1016.00
2022-08-04T04:00:09.723Z,1048.00
2022-08-04T04:01:11.020Z,1084.00
2022-08-04T04:02:09.667Z,1112.00
2022-08-04T04:03:09.606Z,1144.00
2022-08-04T04:04:09.637Z,1176.00
2022-08-04T04:05:09.559Z,1208.00
2022-08-04T04:06:11.550Z,1236.00
2022-08-04T04:07:09.553Z,1268.00
2022-08-04T04:08:12.562Z,1300.00
2022-08-04T04:09:16.177Z,1328.00
2022-08-04T04:10:09.555Z,1356.00
2022-08-04T04:11:09.510Z,1384.00
2022-08-04T04:12:09.504Z,1416.00
2022-08-04T04:13:09.459Z,1440.00
2022-08-04T04:14:09.474Z,1468.00
2022-08-04T04:15:09.468Z,1496.00
2022-08-04T04:16:09.465Z,1524.00
2022-08-04T04:17:09.440Z,1552.00
2022-08-04T04:18:09.391Z,1576.00
2022-08-04T04:19:09.389Z,1600.00
2022-08-04T04:20:09.358Z,1632.00
2022-08-04T04:21:09.379Z,1652.00
2022-08-04T04:22:09.369Z,1680.00
2022-08-04T04:23:11.000Z,1708.00
2022-08-04T04:24:09.354Z,1732.00
2022-08-04T04:25:09.319Z,1756.00
2022-08-04T04:26:09.299Z,1784.00
2022-08-04T04:27:09.261Z,1812.00
2022-08-04T04:28:45.715Z,1836.00
2022-08-04T04:29:09.252Z,1860.00
2022-08-04T04:30:09.232Z,1880.00
2022-08-04T04:31:09.313Z,1904.00
2022-08-04T04:32:09.212Z,1924.00
2022-08-04T04:33:09.198Z,1948.00
2022-08-04T04:34:09.161Z,1968.00
2022-08-04T04:35:09.187Z,1988.00
2022-08-04T04:36:09.138Z,2008.00
2022-08-04T04:37:09.145Z,2024.00
2022-08-04T04:38:09.125Z,2044.00
2022-08-04T04:39:09.187Z,2064.00
2022-08-04T04:40:09.081Z,2088.00
2022-08-04T04:41:09.087Z,2108.00
2022-08-04T04:42:09.107Z,2128.00
2022-08-04T04:43:09.118Z,2152.00
2022-08-04T04:44:09.085Z,2176.00
2022-08-04T04:45:09.015Z,2200.00
2022-08-04T04:46:08.996Z,2224.00
2022-08-04T04:47:09.028Z,2244.00
2022-08-04T04:48:10.489Z,2268.00
2022-08-04T04:49:08.981Z,2296.00
2022-08-04T04:50:09.075Z,2316.00
2022-08-04T04:51:08.953Z,2340.00
2022-08-04T04:52:08.954Z,2364.00
2022-08-04T04:53:08.921Z,2388.00
2022-08-04T04:54:08.911Z,2408.00
2022-08-04T04:55:08.928Z,2428.00
2022-08-04T04:56:08.894Z,2444.00
2022-08-04T04:57:08.873Z,2468.00
2022-08-04T04:58:08.833Z,2488.00
2022-08-04T04:59:08.849Z,2508.00
2022-08-04T05:00:08.827Z,2524.00
2022-08-04T05:01:08.823Z,2544.00
2022-08-04T05:02:08.796Z,2556.00
2022-08-04T05:03:09.535Z,2576.00
2022-08-04T05:04:08.770Z,2596.00
2022-08-04T05:05:08.750Z,2608.00
2022-08-04T05:06:08.759Z,2628.00
2022-08-04T05:07:08.748Z,2644.00
2022-08-04T05:08:44.333Z,2664.00
2022-08-04T05:09:08.719Z,2680.00
2022-08-04T05:10:08.697Z,2696.00
2022-08-04T05:11:08.692Z,2720.00
2022-08-04T05:13:05.023Z,2736.00
2022-08-04T05:14:41.369Z,2756.00
2022-08-04T05:14:47.195Z,2784.00
2022-08-04T05:15:47.190Z,2796.00
2022-08-04T05:16:47.158Z,2816.00
2022-08-04T05:17:47.139Z,2836.00
2022-08-04T05:18:47.144Z,2852.00
2022-08-04T05:19:47.129Z,2868.00
2022-08-04T05:20:47.096Z,2884.00
2022-08-04T05:21:47.108Z,2900.00
2022-08-04T05:22:47.089Z,2916.00
2022-08-04T05:23:47.082Z,2936.00
2022-08-04T05:24:47.066Z,2952.00
2022-08-04T05:25:50.142Z,2968.00
2022-08-04T05:26:47.172Z,2984.00
2022-08-04T05:27:47.019Z,3000.00
2022-08-04T05:28:46.994Z,3020.00
2022-08-04T05:29:46.979Z,3040.00
2022-08-04T05:30:47.001Z,3052.00
2022-08-04T05:31:46.958Z,3068.00
2022-08-04T05:32:46.946Z,3084.00
2022-08-04T05:33:46.965Z,3104.00
2022-08-04T05:34:47.168Z,3116.00
2022-08-04T05:36:20.791Z,3136.00
2022-08-04T05:36:46.914Z,3152.00
2022-08-04T05:37:46.871Z,3172.00
2022-08-04T05:38:46.886Z,3192.00
2022-08-04T05:39:47.269Z,3212.00
2022-08-04T05:40:46.839Z,3232.00
2022-08-04T05:41:48.038Z,3252.00
2022-08-04T05:42:46.825Z,3272.00
2022-08-04T05:43:46.790Z,3292.00
2022-08-04T05:44:50.921Z,3312.00
2022-08-04T05:45:46.770Z,3332.00
2022-08-04T05:46:54.553Z,3352.00
2022-08-04T05:47:46.761Z,3376.00
2022-08-04T05:48:46.755Z,3396.00
2022-08-04T05:50:01.582Z,3420.00
2022-08-04T05:50:46.732Z,3444.00
2022-08-04T05:51:46.687Z,3472.00
2022-08-04T05:52:46.699Z,3496.00
2022-08-04T05:53:46.702Z,3524.00
2022-08-04T05:54:46.660Z,3548.00
2022-08-04T05:55:57.009Z,3564.00
2022-08-04T05:56:46.644Z,3588.00
2022-08-04T05:57:46.623Z,3616.00
2022-08-04T05:58:46.608Z,3636.00
2022-08-04T05:59:46.593Z,3664.00
2022-08-04T06:00:52.142Z,3688.00
2022-08-04T06:01:56.242Z,3712.00
2022-08-04T06:02:46.574Z,3736.00
2022-08-04T06:03:46.564Z,3760.00
2022-08-04T06:04:46.549Z,3788.00
2022-08-04T06:05:46.532Z,3812.00
2022-08-04T06:06:46.507Z,3836.00
2022-08-04T06:08:11.981Z,3860.00
2022-08-04T06:08:46.492Z,3884.00
2022-08-04T06:09:46.482Z,3904.00
2022-08-04T06:10:46.472Z,3932.00
2022-08-04T06:12:03.271Z,3964.00
2022-08-04T06:12:46.432Z,4000.00
2022-08-04T06:13:48.308Z,4028.00
2022-08-04T06:14:46.399Z,4064.00
2022-08-04T06:15:46.428Z,4096.00
2022-08-04T06:16:51.075Z,4120.00
2022-08-04T06:18:35.525Z,4148.00
2022-08-04T06:20:19.204Z,4172.00
2022-08-04T06:20:27.076Z,4204.00
2022-08-04T06:21:16.210Z,4228.00
2022-08-04T06:22:12.937Z,4256.00
2022-08-04T06:23:12.961Z,4288.00
2022-08-04T06:24:12.926Z,4328.00
2022-08-04T06:25:12.943Z,4356.00
2022-08-04T06:26:12.903Z,4376.00
2022-08-04T06:27:12.891Z,4404.00
2022-08-04T06:28:12.855Z,4436.00
2022-08-04T06:29:12.914Z,4456.00
2022-08-04T06:30:12.899Z,4468.00
2022-08-04T06:32:31.689Z,4476.00
2022-08-04T06:32:41.956Z,4496.00
2022-08-04T06:33:12.807Z,4528.00
2022-08-04T06:34:12.805Z,4548.00
2022-08-04T06:35:12.787Z,4572.00
2022-08-04T06:36:12.769Z,4592.00
2022-08-04T06:37:12.788Z,4612.00
2022-08-04T06:38:12.743Z,4636.00
2022-08-04T06:39:12.753Z,4652.00
2022-08-04T06:40:31.541Z,4684.00
2022-08-04T06:41:12.706Z,4724.00
2022-08-04T06:42:22.125Z,4760.00
2022-08-04T06:43:12.665Z,4788.00
2022-08-04T06:44:12.669Z,4816.00
2022-08-04T06:45:12.659Z,4844.00
2022-08-04T06:46:12.673Z,4876.00
2022-08-04T06:47:14.036Z,4900.00
2022-08-04T06:48:12.600Z,4924.00
2022-08-04T06:49:12.603Z,4948.00
2022-08-04T06:51:25.816Z,4964.00
2022-08-04T06:51:45.230Z,4992.00
2022-08-04T06:52:12.574Z,5008.00
2022-08-04T06:53:12.560Z,5024.00
2022-08-04T06:54:12.515Z,5020.00
2022-08-04T06:55:12.511Z,5016.00
2022-08-04T06:56:12.501Z,5120.00
2022-08-04T06:57:12.482Z,5148.00
2022-08-04T06:58:12.469Z,5156.00
2022-08-04T06:59:12.516Z,5164.00
2022-08-04T07:00:12.472Z,5184.00
2022-08-04T07:01:12.450Z,5208.00
2022-08-04T07:02:12.483Z,5236.00
2022-08-04T07:03:12.431Z,5264.00
2022-08-04T07:04:12.391Z,5272.00
2022-08-04T07:05:12.399Z,5284.00
2022-08-04T07:06:14.627Z,5300.00
2022-08-04T07:07:12.353Z,5316.00
2022-08-04T07:08:12.341Z,5340.00
2022-08-04T07:09:12.335Z,5364.00
2022-08-04T07:10:12.403Z,5384.00
2022-08-04T07:11:12.307Z,5400.00
2022-08-04T07:12:12.283Z,5424.00
2022-08-04T07:13:12.274Z,5448.00
2022-08-04T07:14:12.301Z,5472.00
2022-08-04T07:15:14.382Z,5488.00
2022-08-04T07:16:12.247Z,5508.00
2022-08-04T07:17:12.243Z,5536.00
2022-08-04T07:18:12.251Z,5556.00
2022-08-04T07:19:14.794Z,5584.00
2022-08-04T07:20:12.766Z,5608.00
2022-08-04T07:21:12.242Z,5640.00
2022-08-04T07:22:17.889Z,5672.00
2022-08-04T07:23:12.176Z,5704.00
2022-08-04T07:24:12.163Z,5736.00
2022-08-04T07:25:12.967Z,5772.00
2022-08-04T07:26:13.506Z,5804.00
2022-08-04T07:27:12.114Z,5848.00
2022-08-04T07:28:12.074Z,5888.00
2022-08-04T07:29:12.100Z,5928.00
2022-08-04T07:30:12.052Z,5964.00
2022-08-04T07:31:31.882Z,5992.00
2022-08-04T07:32:12.040Z,6024.00
2022-08-04T07:33:12.021Z,6048.00
2022-08-04T07:34:20.550Z,6064.00
2022-08-04T07:36:03.836Z,6076.00
2022-08-04T07:36:14.228Z,6112.00
2022-08-04T07:37:11.985Z,6148.00
2022-08-04T07:38:12.095Z,6200.00
2022-08-04T07:39:11.988Z,6252.00
2022-08-04T07:40:11.938Z,6296.00
2022-08-04T07:42:11.934Z,6376.00
2022-08-04T07:43:11.905Z,6404.00
2022-08-04T07:44:11.958Z,6444.00
2022-08-04T07:45:11.881Z,6544.00
2022-08-04T07:46:11.866Z,6592.00
2022-08-04T07:47:11.869Z,6560.00
2022-08-04T07:48:11.830Z,6468.00
2022-08-04T07:49:11.808Z,6412.00
2022-08-04T07:50:11.799Z,6364.00
2022-08-04T07:51:11.821Z,6332.00
2022-08-04T07:52:11.804Z,6328.00
2022-08-04T07:53:54.236Z,6356.00
2022-08-04T07:54:11.770Z,6392.00
2022-08-04T07:55:11.789Z,6444.00
2022-08-04T07:56:11.737Z,6508.00
2022-08-04T07:57:19.104Z,6528.00
2022-08-04T07:58:11.755Z,6564.00
2022-08-04T07:59:11.699Z,6680.00
2022-08-04T08:00:11.698Z,6848.00
2022-08-04T08:01:11.696Z,7184.00
2022-08-04T08:02:11.632Z,8000.00
2022-08-04T08:03:11.705Z,28352.00
2022-08-04T08:04:11.628Z,53632.00
2022-08-04T08:05:11.613Z,55968.00
2022-08-04T08:06:30.600Z,56480.00
2022-08-04T08:07:11.581Z,57600.00
2022-08-04T08:08:11.560Z,44352.00
2022-08-04T08:09:13.138Z,19456.00
2022-08-04T08:10:11.569Z,13832.00
2022-08-04T08:11:11.546Z,8872.00
2022-08-04T08:12:35.441Z,8132.00
2022-08-04T08:13:11.511Z,8012.00
2022-08-04T08:14:11.504Z,8144.00
2022-08-04T08:15:11.716Z,8268.00
2022-08-04T08:16:11.482Z,8340.00
2022-08-04T08:17:11.476Z,8288.00
2022-08-04T08:18:11.450Z,8128.00
2022-08-04T08:19:11.447Z,8232.00
2022-08-04T08:20:11.415Z,8880.00
2022-08-04T08:21:11.422Z,9544.00
2022-08-04T08:22:11.403Z,9880.00
2022-08-04T08:23:11.373Z,10540.00
2022-08-04T08:24:11.418Z,17664.00
2022-08-04T08:25:11.389Z,25440.00
2022-08-04T08:26:11.343Z,26144.00
2022-08-04T08:27:11.344Z,24640.00
2022-08-04T08:28:11.326Z,23392.00
2022-08-04T08:29:11.323Z,22208.00
2022-08-04T08:30:11.307Z,21920.00
2022-08-04T08:31:11.301Z,24352.00
2022-08-04T08:32:11.264Z,23200.00
2022-08-04T08:33:11.279Z,22848.00
2022-08-04T08:34:11.232Z,22944.00
2022-08-04T08:35:11.239Z,19488.00
2022-08-04T08:36:11.242Z,13196.00
2022-08-04T08:37:11.246Z,19968.00
2022-08-04T08:38:11.189Z,25536.00
2022-08-04T08:39:11.272Z,15768.00
2022-08-04T08:40:11.174Z,9808.00
2022-08-04T08:41:11.188Z,9736.00
2022-08-04T08:42:11.151Z,15304.00
2022-08-04T08:43:59.865Z,43264.00
2022-08-04T08:44:11.239Z,71008.00
2022-08-04T08:45:11.130Z,73536.00
2022-08-04T08:46:11.086Z,72736.00
2022-08-04T08:47:11.106Z,74048.00
2022-08-04T08:48:11.084Z,70816.00
2022-08-04T08:49:11.057Z,71296.00
2022-08-04T08:50:11.045Z,72480.00
2022-08-04T08:51:11.050Z,69792.00
2022-08-04T08:52:11.021Z,68768.00
2022-08-04T08:53:11.035Z,67776.00
2022-08-04T08:54:10.989Z,68448.00
2022-08-04T08:55:10.987Z,70336.00
2022-08-04T08:56:10.989Z,70880.00
2022-08-04T08:57:10.972Z,70528.00
2022-08-04T08:58:10.986Z,69472.00
2022-08-04T08:59:15.389Z,73376.00
2022-08-04T09:00:10.946Z,76192.00
2022-08-04T09:01:10.997Z,71840.00
2022-08-04T09:02:10.928Z,70336.00
2022-08-04T09:03:10.902Z,74400.00
2022-08-04T09:04:10.913Z,76032.00
2022-08-04T09:05:10.901Z,73696.00
2022-08-04T09:06:10.901Z,72512.00
2022-08-04T09:07:10.856Z,75520.00
2022-08-04T09:08:10.855Z,75264.00
2022-08-04T09:09:10.852Z,72288.00
2022-08-04T09:10:10.816Z,75296.00
2022-08-04T09:11:10.833Z,77408.00
2022-08-04T09:12:10.827Z,76032.00
2022-08-04T09:13:10.791Z,76800.00
2022-08-04T09:14:10.798Z,77408.00
2022-08-04T09:15:10.788Z,77856.00
2022-08-04T09:16:10.766Z,78176.00
2022-08-04T09:17:10.767Z,74720.00
2022-08-04T09:18:10.740Z,74528.00
2022-08-04T09:19:38.115Z,76512.00
2022-08-04T09:20:10.748Z,78432.00
2022-08-04T09:21:10.733Z,80960.00
2022-08-04T09:22:12.656Z,81632.00
2022-08-04T09:23:10.690Z,81248.00
2022-08-04T09:24:35.723Z,81728.00
2022-08-04T09:25:10.695Z,81760.00
2022-08-04T09:26:10.675Z,79296.00
2022-08-04T09:27:10.727Z,79616.00
2022-08-04T09:28:10.680Z,84128.00
2022-08-04T09:29:10.681Z,84480.00
2022-08-04T09:30:10.630Z,82112.00
2022-08-04T09:31:10.604Z,87072.00
2022-08-04T09:32:10.597Z,89216.00
2022-08-04T09:33:10.606Z,81952.00
2022-08-04T09:34:10.595Z,85504.00
2022-08-04T09:35:15.127Z,87520.00
2022-08-04T09:36:10.569Z,84896.00
2022-08-04T09:37:10.546Z,87072.00
2022-08-04T09:38:10.562Z,90240.00
2022-08-04T09:39:10.630Z,92544.00
2022-08-04T09:40:12.433Z,91456.00
2022-08-04T09:41:30.042Z,86912.00
2022-08-04T09:42:10.533Z,90432.00
2022-08-04T09:43:10.482Z,87232.00
2022-08-04T09:44:48.851Z,82144.00
2022-08-04T09:45:11.072Z,82784.00
2022-08-04T09:46:10.472Z,83424.00
2022-08-04T09:47:10.449Z,83936.00
2022-08-04T09:48:10.426Z,87328.00
2022-08-04T09:49:10.415Z,93920.00
2022-08-04T09:50:10.447Z,89440.00
2022-08-04T09:51:10.417Z,90752.00
2022-08-04T09:52:10.389Z,84864.00
2022-08-04T09:53:10.395Z,85824.00
2022-08-04T09:54:10.366Z,84256.00
2022-08-04T09:55:10.377Z,82784.00
2022-08-04T09:56:10.379Z,79456.00
2022-08-04T09:57:10.335Z,82784.00
2022-08-04T09:58:10.335Z,85568.00
2022-08-04T09:59:10.315Z,84832.00
2022-08-04T10:00:10.326Z,85920.00
2022-08-04T10:01:10.293Z,91872.00
2022-08-04T10:02:10.289Z,91136.00
2022-08-04T10:03:10.327Z,90496.00
2022-08-04T10:04:10.289Z,92352.00
2022-08-04T10:05:10.368Z,91904.00
2022-08-04T10:06:10.277Z,91904.00
2022-08-04T10:07:10.262Z,93440.00
2022-08-04T10:08:16.703Z,91456.00
2022-08-04T10:09:10.220Z,89344.00
2022-08-04T10:10:10.217Z,90368.00
2022-08-04T10:11:10.207Z,93504.00
2022-08-04T10:12:10.194Z,92800.00
2022-08-04T10:13:10.174Z,87744.00
2022-08-04T10:14:10.186Z,86176.00
2022-08-04T10:15:10.203Z,92768.00
2022-08-04T10:16:10.161Z,93600.00
2022-08-04T10:17:10.138Z,85600.00
2022-08-04T10:18:10.164Z,89568.00
2022-08-04T10:19:10.120Z,98272.00
2022-08-04T10:20:10.126Z,98816.00
2022-08-04T10:21:15.241Z,91936.00
2022-08-04T10:22:28.147Z,89056.00
2022-08-04T10:23:12.307Z,98272.00
2022-08-04T10:24:10.065Z,97184.00
2022-08-04T10:26:03.199Z,90432.00
2022-08-04T10:26:12.445Z,89824.00
2022-08-04T10:27:10.065Z,95264.00
2022-08-04T10:28:10.047Z,96128.00
2022-08-04T10:29:10.016Z,90624.00
2022-08-04T10:30:10.026Z,93056.00
2022-08-04T10:31:09.987Z,95680.00
2022-08-04T10:32:09.993Z,94656.00
2022-08-04T10:33:09.990Z,97440.00
2022-08-04T10:34:10.010Z,94752.00
2022-08-04T10:35:09.951Z,91008.00
2022-08-04T10:36:09.945Z,97888.00
2022-08-04T10:37:09.939Z,97472.00
2022-08-04T10:38:09.961Z,88992.00
2022-08-04T10:39:12.223Z,87808.00
2022-08-04T10:40:09.969Z,93600.00
2022-08-04T10:41:09.925Z,97024.00
2022-08-04T10:42:09.910Z,98240.00
2022-08-04T10:43:22.421Z,96384.00
2022-08-04T10:44:09.939Z,97760.00
2022-08-04T10:45:09.864Z,97120.00
2022-08-04T10:46:09.874Z,91648.00
2022-08-04T10:47:09.858Z,97824.00
2022-08-04T10:48:10.629Z,103552.00
2022-08-04T10:49:09.829Z,102496.00
2022-08-04T10:50:09.824Z,97408.00
2022-08-04T10:51:09.799Z,96352.00
2022-08-04T10:52:09.793Z,97152.00
2022-08-04T10:53:09.924Z,97440.00
2022-08-04T10:54:09.776Z,97184.00
2022-08-04T10:55:09.783Z,94176.00
2022-08-04T10:56:09.785Z,94176.00
2022-08-04T10:57:09.767Z,96800.00
2022-08-04T10:58:09.741Z,98560.00
2022-08-04T10:59:09.750Z,96096.00
2022-08-04T11:00:09.754Z,91680.00
2022-08-04T11:01:09.738Z,92640.00
2022-08-04T11:02:11.851Z,86944.00
2022-08-04T11:03:09.764Z,82144.00
2022-08-04T11:04:09.752Z,78560.00
2022-08-04T11:05:09.689Z,67456.00
2022-08-04T11:06:09.661Z,72192.00
2022-08-04T11:07:09.655Z,72832.00
2022-08-04T11:08:12.784Z,73920.00
2022-08-04T11:09:11.448Z,73184.00
2022-08-04T11:10:09.661Z,72192.00
2022-08-04T11:11:09.622Z,72288.00
2022-08-04T11:12:09.610Z,76704.00
2022-08-04T11:13:22.176Z,76128.00
2022-08-04T11:14:09.633Z,77760.00
2022-08-04T11:15:09.615Z,78688.00
2022-08-04T11:16:09.575Z,77632.00
2022-08-04T11:17:09.550Z,86976.00
2022-08-04T11:18:16.725Z,93600.00
2022-08-04T11:19:09.561Z,92288.00
2022-08-04T11:20:33.587Z,93088.00
2022-08-04T11:21:09.538Z,94016.00
2022-08-04T11:22:09.554Z,93216.00
2022-08-04T11:23:09.562Z,89280.00
2022-08-04T11:24:09.572Z,87872.00
2022-08-04T11:25:09.527Z,89728.00
2022-08-04T11:26:09.495Z,92576.00
2022-08-04T11:27:09.517Z,86464.00
2022-08-04T11:28:09.509Z,88512.00
2022-08-04T11:29:09.467Z,90688.00
2022-08-04T11:30:09.468Z,88320.00
2022-08-04T11:31:09.488Z,84768.00
2022-08-04T11:32:09.432Z,85152.00
2022-08-04T11:33:09.441Z,90080.00
2022-08-04T11:34:09.428Z,85376.00
2022-08-04T11:35:09.426Z,77280.00
2022-08-04T11:36:09.399Z,77248.00
2022-08-04T11:37:14.348Z,77792.00
2022-08-04T11:38:09.404Z,74560.00
2022-08-04T11:39:09.422Z,78624.00
2022-08-04T11:40:09.353Z,80512.00
2022-08-04T11:41:09.358Z,80512.00
2022-08-04T11:42:09.350Z,85088.00
2022-08-04T11:43:09.318Z,89024.00
2022-08-04T11:44:12.818Z,80704.00
2022-08-04T11:45:09.291Z,76192.00
2022-08-04T11:46:09.319Z,81760.00
2022-08-04T11:47:09.306Z,85472.00
2022-08-04T11:48:09.296Z,73120.00
2022-08-04T11:49:09.343Z,74336.00
2022-08-04T11:50:09.252Z,79456.00
2022-08-04T11:51:09.247Z,79520.00
2022-08-04T11:52:09.231Z,74816.00
2022-08-04T11:53:09.266Z,73952.00
2022-08-04T11:54:09.233Z,76384.00
2022-08-04T11:55:09.221Z,77888.00
2022-08-04T11:56:11.367Z,76512.00
2022-08-04T11:57:09.227Z,69504.00
2022-08-04T11:58:09.176Z,60448.00
2022-08-04T11:59:09.197Z,61152.00
2022-08-04T12:00:09.149Z,60288.00
2022-08-04T12:01:09.148Z,66496.00
2022-08-04T12:02:09.204Z,63296.00
2022-08-04T12:03:09.116Z,64160.00
2022-08-04T12:04:09.107Z,68192.00
2022-08-04T12:05:09.113Z,70400.00
2022-08-04T12:06:09.110Z,78336.00
2022-08-04T12:07:30.122Z,77088.00
2022-08-04T12:08:09.070Z,78304.00
2022-08-04T12:09:10.294Z,75680.00
2022-08-04T12:10:09.076Z,83168.00
2022-08-04T12:11:09.096Z,84256.00
2022-08-04T12:12:09.011Z,73472.00
2022-08-04T12:13:09.031Z,77216.00
2022-08-04T12:14:09.003Z,65088.00
2022-08-04T12:15:08.980Z,72832.00
2022-08-04T12:16:09.027Z,80800.00
2022-08-04T12:17:09.001Z,87232.00
2022-08-04T12:18:09.003Z,83424.00
2022-08-04T12:19:08.955Z,92128.00